sensor_id;sensor_type;location;lat;lon;timestamp;pressure;altitude;pressure_sealevel;temperature;humidity
17072;BME280;7731;50.720;6.912;2023-02-13T00:02:22;102121.41;;;7.23;100.00
17072;BME280;7731;50.720;6.912;2023-02-13T00:04:52;102108.63;;;7.25;100.00
17072;BME280;7731;50.720;6.912;2023-02-13T00:07:25;102106.03;;;7.42;100.00
17072;BME280;7731;50.720;6.912;2023-02-13T00:09:55;102101.75;;;7.44;100.00
17072;BME280;7731;50.720;6.912;2023-02-13T00:12:25;102115.41;;;7.37;100.00
17072;BME280;7731;50.720;6.912;2023-02-13T00:14:55;102112.84;;;7.37;100.00
17072;BME280;7731;50.720;6.912;2023-02-13T00:17:26;102102.69;;;7.26;100.00
17072;BME280;7731;50.720;6.912;2023-02-13T00:19:57;102109.47;;;7.31;100.00
17072;BME280;7731;50.720;6.912;2023-02-13T00:22:35;102100.91;;;7.42;100.00
17072;BME280;7731;50.720;6.912;2023-02-13T00:25:11;102104.28;;;7.50;100.00
17072;BME280;7731;50.720;6.912;2023-02-13T00:27:42;102105.19;;;7.33;100.00
17072;BME280;7731;50.720;6.912;2023-02-13T00:30:14;102106.09;;;7.23;100.00
17072;BME280;7731;50.720;6.912;2023-02-13T00:32:44;102099.22;;;7.38;100.00
17072;BME280;7731;50.720;6.912;2023-02-13T00:35:14;102104.38;;;7.31;100.00
17072;BME280;7731;50.720;6.912;2023-02-13T00:37:47;102102.66;;;7.27;100.00
17072;BME280;7731;50.720;6.912;2023-02-13T00:40:18;102100.06;;;7.37;100.00
17072;BME280;7731;50.720;6.912;2023-02-13T00:42:48;102100.09;;;7.33;100.00
17072;BME280;7731;50.720;6.912;2023-02-13T00:45:21;102097.53;;;7.30;100.00
17072;BME280;7731;50.720;6.912;2023-02-13T00:48:00;102099.25;;;7.28;100.00
17072;BME280;7731;50.720;6.912;2023-02-13T00:50:33;102092.41;;;7.33;100.00
17072;BME280;7731;50.720;6.912;2023-02-13T00:53:07;102080.47;;;7.32;100.00
17072;BME280;7731;50.720;6.912;2023-02-13T00:55:41;102090.69;;;7.37;100.00
17072;BME280;7731;50.720;6.912;2023-02-13T00:58:12;102083.91;;;7.35;100.00
17072;BME280;7731;50.720;6.912;2023-02-13T01:00:42;102082.22;;;7.27;100.00
17072;BME280;7731;50.720;6.912;2023-02-13T01:03:14;102077.94;;;7.25;100.00
17072;BME280;7731;50.720;6.912;2023-02-13T01:05:45;102086.50;;;7.27;100.00
17072;BME280;7731;50.720;6.912;2023-02-13T01:08:19;102079.59;;;7.38;100.00
17072;BME280;7731;50.720;6.912;2023-02-13T01:10:49;102075.41;;;7.23;100.00
17072;BME280;7731;50.720;6.912;2023-02-13T01:13:20;102074.59;;;7.13;100.00
17072;BME280;7731;50.720;6.912;2023-02-13T01:15:50;102072.06;;;7.12;100.00
17072;BME280;7731;50.720;6.912;2023-02-13T01:18:22;102066.09;;;7.11;100.00
17072;BME280;7731;50.720;6.912;2023-02-13T01:21:00;102066.06;;;7.22;100.00
17072;BME280;7731;50.720;6.912;2023-02-13T01:23:36;102065.13;;;7.39;100.00
17072;BME280;7731;50.720;6.912;2023-02-13T01:26:10;102063.53;;;7.16;100.00
17072;BME280;7731;50.720;6.912;2023-02-13T01:28:42;102063.53;;;7.18;100.00
17072;BME280;7731;50.720;6.912;2023-02-13T01:31:12;102067.72;;;7.25;100.00
17072;BME280;7731;50.720;6.912;2023-02-13T01:33:42;102065.19;;;7.23;100.00
17072;BME280;7731;50.720;6.912;2023-02-13T01:36:13;102070.34;;;7.11;100.00
17072;BME280;7731;50.720;6.912;2023-02-13T01:38:47;102072.91;;;7.09;100.00
17072;BME280;7731;50.720;6.912;2023-02-13T01:41:17;102061.84;;;7.07;100.00
17072;BME280;7731;50.720;6.912;2023-02-13T01:43:51;102052.38;;;7.29;100.00
17072;BME280;7731;50.720;6.912;2023-02-13T01:46:28;102059.25;;;7.17;100.00
17072;BME280;7731;50.720;6.912;2023-02-13T01:49:08;102067.72;;;7.25;100.00
17072;BME280;7731;50.720;6.912;2023-02-13T01:51:40;102066.06;;;7.19;100.00
17072;BME280;7731;50.720;6.912;2023-02-13T01:54:20;102060.09;;;7.14;100.00
17072;BME280;7731;50.720;6.912;2023-02-13T01:57:01;102050.75;;;7.11;100.00
17072;BME280;7731;50.720;6.912;2023-02-13T01:59:45;102061.84;;;7.07;100.00
17072;BME280;7731;50.720;6.912;2023-02-13T02:02:18;102061.81;;;7.15;100.00
17072;BME280;7731;50.720;6.912;2023-02-13T02:04:50;102053.28;;;7.22;100.00
17072;BME280;7731;50.720;6.912;2023-02-13T02:07:28;102053.31;;;7.16;100.00
17072;BME280;7731;50.720;6.912;2023-02-13T02:10:07;102052.34;;;7.32;100.00
17072;BME280;7731;50.720;6.912;2023-02-13T02:12:45;102054.09;;;7.27;100.00
17072;BME280;7731;50.720;6.912;2023-02-13T02:15:17;102070.31;;;7.20;100.00
17072;BME280;7731;50.720;6.912;2023-02-13T02:17:47;102068.69;;;7.07;100.00
17072;BME280;7731;50.720;6.912;2023-02-13T02:20:44;102063.50;;;7.19;100.00
17072;BME280;7731;50.720;6.912;2023-02-13T02:23:55;102074.59;;;7.13;100.00
17072;BME280;7731;50.720;6.912;2023-02-13T02:27:12;102074.63;;;7.09;100.00
17072;BME280;7731;50.720;6.912;2023-02-13T02:30:24;102072.91;;;7.06;100.00
17072;BME280;7731;50.720;6.912;2023-02-13T02:33:21;102072.09;;;7.04;100.00
17072;BME280;7731;50.720;6.912;2023-02-13T02:36:14;102066.16;;;6.99;100.00
17072;BME280;7731;50.720;6.912;2023-02-13T02:39:02;102064.47;;;6.92;100.00
17072;BME280;7731;50.720;6.912;2023-02-13T02:41:52;102067.84;;;6.92;100.00
17072;BME280;7731;50.720;6.912;2023-02-13T02:44:38;102063.66;;;6.82;100.00
17072;BME280;7731;50.720;6.912;2023-02-13T02:47:22;102060.22;;;6.83;100.00
17072;BME280;7731;50.720;6.912;2023-02-13T02:50:27;102061.09;;;6.79;100.00
17072;BME280;7731;50.720;6.912;2023-02-13T02:53:37;102064.47;;;6.90;100.00
17072;BME280;7731;50.720;6.912;2023-02-13T02:56:16;102053.41;;;6.85;100.00
17072;BME280;7731;50.720;6.912;2023-02-13T02:58:52;102053.41;;;6.91;100.00
17072;BME280;7731;50.720;6.912;2023-02-13T03:01:38;102061.09;;;6.84;100.00
17072;BME280;7731;50.720;6.912;2023-02-13T03:04:28;102061.97;;;6.69;100.00
17072;BME280;7731;50.720;6.912;2023-02-13T03:07:18;102062.81;;;6.63;100.00
17072;BME280;7731;50.720;6.912;2023-02-13T03:09:55;102069.59;;;6.79;100.00
17072;BME280;7731;50.720;6.912;2023-02-13T03:12:45;102069.63;;;6.69;100.00
17072;BME280;7731;50.720;6.912;2023-02-13T03:15:30;102066.25;;;6.64;100.00
17072;BME280;7731;50.720;6.912;2023-02-13T03:18:02;102067.91;;;6.69;100.00
17072;BME280;7731;50.720;6.912;2023-02-13T03:20:51;102064.53;;;6.66;100.00
17072;BME280;7731;50.720;6.912;2023-02-13T03:23:52;102073.94;;;6.51;100.00
17072;BME280;7731;50.720;6.912;2023-02-13T03:26:51;102076.47;;;6.47;100.00
17072;BME280;7731;50.720;6.912;2023-02-13T03:29:42;102079.03;;;6.39;100.00
17072;BME280;7731;50.720;6.912;2023-02-13T03:32:32;102070.53;;;6.28;100.00
17072;BME280;7731;50.720;6.912;2023-02-13T03:35:35;102074.78;;;6.27;100.00
17072;BME280;7731;50.720;6.912;2023-02-13T03:38:26;102067.97;;;6.15;100.00
17072;BME280;7731;50.720;6.912;2023-02-13T03:41:06;102073.91;;;6.11;100.00
17072;BME280;7731;50.720;6.912;2023-02-13T03:44:05;102074.78;;;6.05;100.00
17072;BME280;7731;50.720;6.912;2023-02-13T03:46:41;102068.81;;;6.05;100.00
17072;BME280;7731;50.720;6.912;2023-02-13T03:49:21;102071.34;;;5.97;100.00
17072;BME280;7731;50.720;6.912;2023-02-13T03:52:10;102079.84;;;5.88;100.00
17072;BME280;7731;50.720;6.912;2023-02-13T03:54:49;102076.44;;;5.93;100.00
17072;BME280;7731;50.720;6.912;2023-02-13T03:57:39;102076.41;;;5.89;100.00
17072;BME280;7731;50.720;6.912;2023-02-13T04:00:27;102071.31;;;5.85;100.00
17072;BME280;7731;50.720;6.912;2023-02-13T04:03:11;102078.97;;;5.86;100.00
17072;BME280;7731;50.720;6.912;2023-02-13T04:05:50;102072.16;;;5.76;100.00
17072;BME280;7731;50.720;6.912;2023-02-13T04:08:22;102075.56;;;5.72;100.00
17072;BME280;7731;50.720;6.912;2023-02-13T04:11:03;102072.16;;;5.68;100.00
17072;BME280;7731;50.720;6.912;2023-02-13T04:13:44;102075.56;;;5.70;100.00
17072;BME280;7731;50.720;6.912;2023-02-13T04:16:22;102078.09;;;5.69;100.00
17072;BME280;7731;50.720;6.912;2023-02-13T04:18:59;102078.94;;;5.65;100.00
17072;BME280;7731;50.720;6.912;2023-02-13T04:21:32;102078.09;;;5.67;100.00
17072;BME280;7731;50.720;6.912;2023-02-13T04:24:03;102071.28;;;5.63;100.00
17072;BME280;7731;50.720;6.912;2023-02-13T04:26:39;102075.53;;;5.66;100.00
17072;BME280;7731;50.720;6.912;2023-02-13T04:29:13;102073.81;;;5.55;100.00
17072;BME280;7731;50.720;6.912;2023-02-13T04:31:44;102078.91;;;5.52;100.00
17072;BME280;7731;50.720;6.912;2023-02-13T04:34:16;102079.75;;;5.51;100.00
17072;BME280;7731;50.720;6.912;2023-02-13T04:36:48;102083.97;;;5.46;100.00
17072;BME280;7731;50.720;6.912;2023-02-13T04:39:18;102083.13;;;5.46;100.00
17072;BME280;7731;50.720;6.912;2023-02-13T04:41:48;102075.50;;;5.44;100.00
17072;BME280;7731;50.720;6.912;2023-02-13T04:44:21;102075.47;;;5.36;100.00
17072;BME280;7731;50.720;6.912;2023-02-13T04:46:51;102072.91;;;5.32;100.00
17072;BME280;7731;50.720;6.912;2023-02-13T04:49:21;102070.34;;;5.32;100.00
17072;BME280;7731;50.720;6.912;2023-02-13T04:51:51;102072.06;;;5.33;100.00
17072;BME280;7731;50.720;6.912;2023-02-13T04:54:21;102072.03;;;5.30;100.00
17072;BME280;7731;50.720;6.912;2023-02-13T04:56:51;102056.78;;;5.36;100.00
17072;BME280;7731;50.720;6.912;2023-02-13T04:59:24;102056.78;;;5.33;100.00
17072;BME280;7731;50.720;6.912;2023-02-13T05:01:54;102066.94;;;5.30;100.00
17072;BME280;7731;50.720;6.912;2023-02-13T05:04:26;102064.41;;;5.28;100.00
17072;BME280;7731;50.720;6.912;2023-02-13T05:06:56;102063.53;;;5.31;100.00
17072;BME280;7731;50.720;6.912;2023-02-13T05:09:26;102061.84;;;5.27;100.00
17072;BME280;7731;50.720;6.912;2023-02-13T05:11:59;102060.09;;;5.19;100.00
17072;BME280;7731;50.720;6.912;2023-02-13T05:14:32;102068.63;;;5.28;100.00
17072;BME280;7731;50.720;6.912;2023-02-13T05:17:02;102065.22;;;5.26;100.00
17072;BME280;7731;50.720;6.912;2023-02-13T05:19:33;102066.94;;;5.27;100.00
17072;BME280;7731;50.720;6.912;2023-02-13T05:22:03;102066.06;;;5.22;100.00
17072;BME280;7731;50.720;6.912;2023-02-13T05:24:45;102066.88;;;5.17;100.00
17072;BME280;7731;50.720;6.912;2023-02-13T05:27:15;102066.91;;;5.25;100.00
17072;BME280;7731;50.720;6.912;2023-02-13T05:29:48;102073.66;;;5.15;100.00
17072;BME280;7731;50.720;6.912;2023-02-13T05:32:18;102080.44;;;5.10;100.00
17072;BME280;7731;50.720;6.912;2023-02-13T05:34:49;102073.63;;;5.03;100.00
17072;BME280;7731;50.720;6.912;2023-02-13T05:37:19;102081.28;;;5.09;100.00
17072;BME280;7731;50.720;6.912;2023-02-13T05:39:49;102079.56;;;5.07;100.00
17072;BME280;7731;50.720;6.912;2023-02-13T05:42:19;102073.59;;;4.97;100.00
17072;BME280;7731;50.720;6.912;2023-02-13T05:44:52;102075.31;;;5.01;100.00
17072;BME280;7731;50.720;6.912;2023-02-13T05:47:24;102077.00;;;5.04;100.00
17072;BME280;7731;50.720;6.912;2023-02-13T05:49:54;102078.72;;;5.03;100.00
17072;BME280;7731;50.720;6.912;2023-02-13T05:52:25;102078.69;;;4.97;100.00
17072;BME280;7731;50.720;6.912;2023-02-13T05:54:55;102072.72;;;4.93;100.00
17072;BME280;7731;50.720;6.912;2023-02-13T05:57:25;102082.03;;;4.93;100.00
17072;BME280;7731;50.720;6.912;2023-02-13T06:00:08;102077.81;;;4.89;100.00
17072;BME280;7731;50.720;6.912;2023-02-13T06:02:41;102085.44;;;4.89;100.00
17072;BME280;7731;50.720;6.912;2023-02-13T06:05:11;102084.56;;;4.88;100.00
17072;BME280;7731;50.720;6.912;2023-02-13T06:07:41;102085.44;;;4.86;100.00
17072;BME280;7731;50.720;6.912;2023-02-13T06:10:14;102084.56;;;4.85;100.00
17072;BME280;7731;50.720;6.912;2023-02-13T06:12:44;102083.72;;;4.89;100.00
17072;BME280;7731;50.720;6.912;2023-02-13T06:15:17;102079.47;;;4.88;100.00
17072;BME280;7731;50.720;6.912;2023-02-13T06:17:47;102080.31;;;4.86;100.00
17072;BME280;7731;50.720;6.912;2023-02-13T06:20:23;102078.63;;;4.86;100.00
17072;BME280;7731;50.720;6.912;2023-02-13T06:22:53;102085.44;;;4.86;100.00
17072;BME280;7731;50.720;6.912;2023-02-13T06:25:24;102080.31;;;4.86;100.00
17072;BME280;7731;50.720;6.912;2023-02-13T06:27:54;102087.09;;;4.83;100.00
17072;BME280;7731;50.720;6.912;2023-02-13T06:30:28;102084.50;;;4.77;100.00
17072;BME280;7731;50.720;6.912;2023-02-13T06:32:58;102087.94;;;4.81;100.00
17072;BME280;7731;50.720;6.912;2023-02-13T06:35:29;102087.91;;;4.76;100.00
17072;BME280;7731;50.720;6.912;2023-02-13T06:37:59;102095.53;;;4.73;100.00
17072;BME280;7731;50.720;6.912;2023-02-13T06:40:29;102095.56;;;4.78;100.00
17072;BME280;7731;50.720;6.912;2023-02-13T06:42:59;102100.63;;;4.73;100.00
17072;BME280;7731;50.720;6.912;2023-02-13T06:45:32;102099.72;;;4.70;100.00
17072;BME280;7731;50.720;6.912;2023-02-13T06:48:02;102093.81;;;4.69;100.00
17072;BME280;7731;50.720;6.912;2023-02-13T06:50:33;102094.63;;;4.68;100.00
17072;BME280;7731;50.720;6.912;2023-02-13T06:53:03;102093.78;;;4.66;100.00
17072;BME280;7731;50.720;6.912;2023-02-13T06:55:34;102086.97;;;4.65;100.00
17072;BME280;7731;50.720;6.912;2023-02-13T06:58:07;102091.22;;;4.66;100.00
17072;BME280;7731;50.720;6.912;2023-02-13T07:00:40;102085.28;;;4.64;100.00
17072;BME280;7731;50.720;6.912;2023-02-13T07:03:10;102081.03;;;4.61;100.00
17072;BME280;7731;50.720;6.912;2023-02-13T07:05:41;102081.88;;;4.65;100.00
17072;BME280;7731;50.720;6.912;2023-02-13T07:08:18;102075.13;;;4.69;100.00
17072;BME280;7731;50.720;6.912;2023-02-13T07:10:48;102086.16;;;4.68;100.00
17072;BME280;7731;50.720;6.912;2023-02-13T07:13:18;102075.13;;;4.69;100.00
17072;BME280;7731;50.720;6.912;2023-02-13T07:15:51;102068.41;;;4.78;100.00
17072;BME280;7731;50.720;6.912;2023-02-13T07:18:24;102076.06;;;4.81;100.00
17072;BME280;7731;50.720;6.912;2023-02-13T07:20:54;102073.50;;;4.81;100.00
17072;BME280;7731;50.720;6.912;2023-02-13T07:23:25;102065.88;;;4.81;100.00
17072;BME280;7731;50.720;6.912;2023-02-13T07:25:58;102067.56;;;4.82;100.00
17072;BME280;7731;50.720;6.912;2023-02-13T07:28:29;102068.47;;;4.95;100.00
17072;BME280;7731;50.720;6.912;2023-02-13T07:31:05;102075.31;;;5.01;100.00
17072;BME280;7731;50.720;6.912;2023-02-13T07:33:36;102066.72;;;4.83;100.00
17072;BME280;7731;50.720;6.912;2023-02-13T07:36:07;102079.56;;;5.05;100.00
17072;BME280;7731;50.720;6.912;2023-02-13T07:38:37;102078.69;;;5.00;100.00
17072;BME280;7731;50.720;6.912;2023-02-13T07:41:08;102069.38;;;5.10;100.00
17072;BME280;7731;50.720;6.912;2023-02-13T07:43:38;102074.53;;;5.17;100.00
17072;BME280;7731;50.720;6.912;2023-02-13T07:46:13;102075.34;;;5.10;100.00
17072;BME280;7731;50.720;6.912;2023-02-13T07:48:43;102069.41;;;5.14;100.00
17072;BME280;7731;50.720;6.912;2023-02-13T07:51:13;102074.59;;;5.30;100.00
17072;BME280;7731;50.720;6.912;2023-02-13T07:53:44;102078.00;;;5.33;100.00
17072;BME280;7731;50.720;6.912;2023-02-13T07:56:14;102070.41;;;5.50;100.00
17072;BME280;7731;50.720;6.912;2023-02-13T07:58:44;102070.41;;;5.57;100.00
17072;BME280;7731;50.720;6.912;2023-02-13T08:01:17;102067.94;;;5.87;100.00
17072;BME280;7731;50.720;6.912;2023-02-13T08:03:48;102070.13;;;7.63;100.00
17072;BME280;7731;50.720;6.912;2023-02-13T08:06:21;102067.38;;;9.56;100.00
17072;BME280;7731;50.720;6.912;2023-02-13T08:08:51;102065.50;;;10.22;95.23
17072;BME280;7731;50.720;6.912;2023-02-13T08:11:41;102063.97;;;11.05;87.01
17072;BME280;7731;50.720;6.912;2023-02-13T08:14:23;102060.59;;;11.43;86.30
17072;BME280;7731;50.720;6.912;2023-02-13T08:16:59;102062.56;;;13.04;69.08
17072;BME280;7731;50.720;6.912;2023-02-13T08:19:30;102070.56;;;13.25;66.33
17072;BME280;7731;50.720;6.912;2023-02-13T08:22:00;102063.19;;;12.17;74.81
17072;BME280;7731;50.720;6.912;2023-02-13T08:24:31;102070.75;;;12.56;68.78
17072;BME280;7731;50.720;6.912;2023-02-13T08:27:02;102054.75;;;13.66;63.50
17072;BME280;7731;50.720;6.912;2023-02-13T08:29:32;102062.94;;;13.79;62.12
17072;BME280;7731;50.720;6.912;2023-02-13T08:32:06;102061.50;;;13.70;62.25
17072;BME280;7731;50.720;6.912;2023-02-13T08:34:36;102060.88;;;14.91;56.75
17072;BME280;7731;50.720;6.912;2023-02-13T08:37:06;102065.81;;;14.23;57.73
17072;BME280;7731;50.720;6.912;2023-02-13T08:39:36;102069.53;;;13.31;63.28
17072;BME280;7731;50.720;6.912;2023-02-13T08:42:07;102074.44;;;14.22;57.90
17072;BME280;7731;50.720;6.912;2023-02-13T08:44:44;102078.25;;;13.27;61.70
17072;BME280;7731;50.720;6.912;2023-02-13T08:47:16;102080.63;;;13.91;58.82
17072;BME280;7731;50.720;6.912;2023-02-13T08:49:46;102072.97;;;14.90;54.88
17072;BME280;7731;50.720;6.912;2023-02-13T08:52:19;102068.84;;;14.61;55.99
17072;BME280;7731;50.720;6.912;2023-02-13T08:54:49;102081.13;;;13.17;62.32
17072;BME280;7731;50.720;6.912;2023-02-13T08:57:19;102076.03;;;14.51;59.01
17072;BME280;7731;50.720;6.912;2023-02-13T08:59:49;102073.28;;;15.28;54.13
17072;BME280;7731;50.720;6.912;2023-02-13T09:02:22;102085.06;;;13.59;60.27
17072;BME280;7731;50.720;6.912;2023-02-13T09:04:53;102085.41;;;14.30;58.91
17072;BME280;7731;50.720;6.912;2023-02-13T09:07:23;102082.28;;;14.71;54.73
17072;BME280;7731;50.720;6.912;2023-02-13T09:09:54;102081.47;;;15.40;53.65
17072;BME280;7731;50.720;6.912;2023-02-13T09:12:24;102085.63;;;15.89;50.72
17072;BME280;7731;50.720;6.912;2023-02-13T09:14:54;102083.75;;;14.53;55.94
17072;BME280;7731;50.720;6.912;2023-02-13T09:17:27;102081.75;;;16.20;50.21
17072;BME280;7731;50.720;6.912;2023-02-13T09:19:57;102081.22;;;15.24;54.15
17072;BME280;7731;50.720;6.912;2023-02-13T09:22:29;102078.47;;;15.95;52.81
17072;BME280;7731;50.720;6.912;2023-02-13T09:25:00;102072.09;;;18.30;44.86
17072;BME280;7731;50.720;6.912;2023-02-13T09:27:31;102071.25;;;18.30;43.29
17072;BME280;7731;50.720;6.912;2023-02-13T09:30:02;102071.19;;;18.31;43.13
17072;BME280;7731;50.720;6.912;2023-02-13T09:32:35;102070.56;;;16.59;45.83
17072;BME280;7731;50.720;6.912;2023-02-13T09:35:05;102077.06;;;16.29;47.41
17072;BME280;7731;50.720;6.912;2023-02-13T09:37:36;102077.25;;;17.05;47.11
17072;BME280;7731;50.720;6.912;2023-02-13T09:40:15;102073.56;;;17.64;43.95
17072;BME280;7731;50.720;6.912;2023-02-13T09:42:50;102075.19;;;17.30;46.11
17072;BME280;7731;50.720;6.912;2023-02-13T09:45:22;102083.34;;;17.59;43.71
17072;BME280;7731;50.720;6.912;2023-02-13T09:47:55;102080.03;;;16.40;46.63
17072;BME280;7731;50.720;6.912;2023-02-13T09:50:29;102088.09;;;16.54;48.33
17072;BME280;7731;50.720;6.912;2023-02-13T09:53:03;102083.31;;;16.45;47.69
17072;BME280;7731;50.720;6.912;2023-02-13T09:55:44;102086.50;;;16.31;48.52
17072;BME280;7731;50.720;6.912;2023-02-13T09:58:42;102089.28;;;16.66;46.40
17072;BME280;7731;50.720;6.912;2023-02-13T10:01:27;102080.44;;;16.31;47.39
17072;BME280;7731;50.720;6.912;2023-02-13T10:04:24;102073.91;;;17.76;43.79
17072;BME280;7731;50.720;6.912;2023-02-13T10:07:14;102071.13;;;19.16;40.67
17072;BME280;7731;50.720;6.912;2023-02-13T10:10:00;102073.88;;;17.95;43.46
17072;BME280;7731;50.720;6.912;2023-02-13T10:13:03;102078.25;;;17.94;43.63
17072;BME280;7731;50.720;6.912;2023-02-13T10:15:49;102076.91;;;15.91;48.27
17072;BME280;7731;50.720;6.912;2023-02-13T10:18:26;102070.22;;;17.62;44.96
17072;BME280;7731;50.720;6.912;2023-02-13T10:21:06;102072.34;;;16.99;46.06
17072;BME280;7731;50.720;6.912;2023-02-13T10:23:46;102065.09;;;19.77;40.17
17072;BME280;7731;50.720;6.912;2023-02-13T10:26:21;102075.09;;;18.05;43.40
17072;BME280;7731;50.720;6.912;2023-02-13T10:29:21;102076.47;;;17.58;43.86
17072;BME280;7731;50.720;6.912;2023-02-13T10:32:44;102072.13;;;18.13;42.00
17072;BME280;7731;50.720;6.912;2023-02-13T10:35:38;102081.16;;;16.94;44.86
17072;BME280;7731;50.720;6.912;2023-02-13T10:38:39;102079.28;;;17.17;45.77
17072;BME280;7731;50.720;6.912;2023-02-13T10:41:46;102080.69;;;16.24;47.44
17072;BME280;7731;50.720;6.912;2023-02-13T10:44:53;102067.97;;;17.18;45.51
17072;BME280;7731;50.720;6.912;2023-02-13T10:48:07;102074.19;;;16.55;46.53
17072;BME280;7731;50.720;6.912;2023-02-13T10:51:08;102058.56;;;17.52;45.12
17072;BME280;7731;50.720;6.912;2023-02-13T10:54:28;102066.34;;;16.96;46.29
17072;BME280;7731;50.720;6.912;2023-02-13T10:57:32;102057.03;;;18.37;41.90
17072;BME280;7731;50.720;6.912;2023-02-13T11:00:14;102056.56;;;15.81;48.37
17072;BME280;7731;50.720;6.912;2023-02-13T11:02:47;102058.59;;;15.73;48.89
17072;BME280;7731;50.720;6.912;2023-02-13T11:05:20;102055.16;;;16.15;48.41
17072;BME280;7731;50.720;6.912;2023-02-13T11:10:26;102058.50;;;16.98;46.59
17072;BME280;7731;50.720;6.912;2023-02-13T11:12:57;102043.78;;;16.78;46.85
17072;BME280;7731;50.720;6.912;2023-02-13T11:15:57;102041.66;;;17.07;44.98
17072;BME280;7731;50.720;6.912;2023-02-13T11:18:32;102040.38;;;16.57;45.77
17072;BME280;7731;50.720;6.912;2023-02-13T11:21:09;102031.75;;;17.15;45.31
17072;BME280;7731;50.720;6.912;2023-02-13T11:23:58;102028.25;;;16.97;45.42
17072;BME280;7731;50.720;6.912;2023-02-13T11:27:00;102027.69;;;16.90;46.30
17072;BME280;7731;50.720;6.912;2023-02-13T11:29:59;102005.84;;;17.50;45.54
17072;BME280;7731;50.720;6.912;2023-02-13T11:32:59;102012.25;;;16.08;47.69
17072;BME280;7731;50.720;6.912;2023-02-13T11:35:33;102014.22;;;17.01;46.20
17072;BME280;7731;50.720;6.912;2023-02-13T11:38:23;102010.31;;;16.13;48.33
17072;BME280;7731;50.720;6.912;2023-02-13T11:41:23;102002.19;;;17.54;44.19
17072;BME280;7731;50.720;6.912;2023-02-13T11:44:25;102009.13;;;16.60;47.01
17072;BME280;7731;50.720;6.912;2023-02-13T11:47:32;102006.63;;;16.38;48.75
17072;BME280;7731;50.720;6.912;2023-02-13T11:50:27;101991.59;;;17.22;46.46
17072;BME280;7731;50.720;6.912;2023-02-13T11:53:21;101998.34;;;17.07;46.55
17072;BME280;7731;50.720;6.912;2023-02-13T11:56:08;101998.59;;;16.63;48.09
17072;BME280;7731;50.720;6.912;2023-02-13T11:58:40;101994.13;;;16.86;48.05
17072;BME280;7731;50.720;6.912;2023-02-13T12:01:37;101989.09;;;17.02;47.20
17072;BME280;7731;50.720;6.912;2023-02-13T12:04:14;101986.06;;;16.73;46.81
17072;BME280;7731;50.720;6.912;2023-02-13T12:07:00;101976.81;;;17.59;44.05
17072;BME280;7731;50.720;6.912;2023-02-13T12:09:31;101974.47;;;18.23;42.84
17072;BME280;7731;50.720;6.912;2023-02-13T12:12:04;101983.50;;;16.52;46.39
17072;BME280;7731;50.720;6.912;2023-02-13T12:14:42;101981.97;;;15.45;49.74
17072;BME280;7731;50.720;6.912;2023-02-13T12:17:21;101979.63;;;14.95;52.10
17072;BME280;7731;50.720;6.912;2023-02-13T12:19:59;101978.75;;;14.96;52.71
17072;BME280;7731;50.720;6.912;2023-02-13T12:22:39;101968.75;;;15.09;52.96
17072;BME280;7731;50.720;6.912;2023-02-13T12:25:37;101973.66;;;14.45;56.02
17072;BME280;7731;50.720;6.912;2023-02-13T12:28:29;101968.03;;;15.05;55.27
17072;BME280;7731;50.720;6.912;2023-02-13T12:32:00;101962.25;;;15.21;54.68
17072;BME280;7731;50.720;6.912;2023-02-13T12:38:03;101953.75;;;14.71;56.32
17072;BME280;7731;50.720;6.912;2023-02-13T12:41:06;101950.28;;;14.72;56.54
17072;BME280;7731;50.720;6.912;2023-02-13T12:47:18;101954.25;;;14.34;58.54
17072;BME280;7731;50.720;6.912;2023-02-13T12:50:32;101951.72;;;14.32;59.61
17072;BME280;7731;50.720;6.912;2023-02-13T12:53:21;101945.31;;;14.19;59.62
17072;BME280;7731;50.720;6.912;2023-02-13T12:56:21;101935.44;;;14.54;59.15
17072;BME280;7731;50.720;6.912;2023-02-13T12:59:08;101931.66;;;14.39;59.13
17072;BME280;7731;50.720;6.912;2023-02-13T13:05:07;101924.53;;;14.45;58.67
17072;BME280;7731;50.720;6.912;2023-02-13T13:08:13;101925.06;;;14.54;59.36
17072;BME280;7731;50.720;6.912;2023-02-13T13:11:07;101930.34;;;14.03;60.20
17072;BME280;7731;50.720;6.912;2023-02-13T13:13:56;101922.16;;;14.39;59.67
17072;BME280;7731;50.720;6.912;2023-02-13T13:16:42;101922.47;;;14.06;60.65
17072;BME280;7731;50.720;6.912;2023-02-13T13:19:30;101917.88;;;14.38;58.37
17072;BME280;7731;50.720;6.912;2023-02-13T13:22:11;101920.69;;;14.08;60.77
17072;BME280;7731;50.720;6.912;2023-02-13T13:25:01;101921.88;;;14.23;59.02
17072;BME280;7731;50.720;6.912;2023-02-13T13:27:41;101919.44;;;14.19;59.61
17072;BME280;7731;50.720;6.912;2023-02-13T13:30:17;101909.66;;;14.03;59.75
17072;BME280;7731;50.720;6.912;2023-02-13T13:32:55;101907.00;;;14.30;59.60
17072;BME280;7731;50.720;6.912;2023-02-13T13:35:29;101908.00;;;14.02;60.79
17072;BME280;7731;50.720;6.912;2023-02-13T13:38:16;101907.38;;;14.43;59.23
17072;BME280;7731;50.720;6.912;2023-02-13T13:40:55;101907.97;;;14.50;58.53
17072;BME280;7731;50.720;6.912;2023-02-13T13:43:36;101901.03;;;14.04;59.80
17072;BME280;7731;50.720;6.912;2023-02-13T13:46:18;101900.91;;;14.07;59.61
17072;BME280;7731;50.720;6.912;2023-02-13T13:49:10;101902.88;;;14.01;59.87
17072;BME280;7731;50.720;6.912;2023-02-13T13:51:43;101898.00;;;13.93;60.64
17072;BME280;7731;50.720;6.912;2023-02-13T13:54:23;101896.88;;;14.24;59.90
17072;BME280;7731;50.720;6.912;2023-02-13T13:57:10;101893.66;;;14.17;59.73
17072;BME280;7731;50.720;6.912;2023-02-13T14:00:26;101903.16;;;13.93;60.36
17072;BME280;7731;50.720;6.912;2023-02-13T14:03:23;101888.88;;;14.06;60.52
17072;BME280;7731;50.720;6.912;2023-02-13T14:06:05;101885.28;;;14.10;60.01
17072;BME280;7731;50.720;6.912;2023-02-13T14:12:43;101889.56;;;14.35;59.07
17072;BME280;7731;50.720;6.912;2023-02-13T14:15:48;101889.44;;;13.91;60.26
17072;BME280;7731;50.720;6.912;2023-02-13T14:18:23;101885.72;;;14.22;58.76
17072;BME280;7731;50.720;6.912;2023-02-13T14:20:56;101885.06;;;14.17;58.35